sensor_id;sensor_type;location;lat;lon;timestamp;P1;durP1;ratioP1;P2;durP2;ratioP2
39486;SDS011;25173;50.430;18.926;2023-08-31T00:01:01;14.65;;;10.70;;
39486;SDS011;25173;50.430;18.926;2023-08-31T00:04:04;12.63;;;10.68;;
39486;SDS011;25173;50.430;18.926;2023-08-31T00:07:05;13.77;;;10.95;;
39486;SDS011;25173;50.430;18.926;2023-08-31T00:10:07;11.63;;;10.02;;
39486;SDS011;25173;50.430;18.926;2023-08-31T00:13:11;13.67;;;11.33;;
39486;SDS011;25173;50.430;18.926;2023-08-31T00:16:12;13.55;;;11.43;;
39486;SDS011;25173;50.430;18.926;2023-08-31T00:19:13;12.35;;;10.48;;
39486;SDS011;25173;50.430;18.926;2023-08-31T00:22:14;12.13;;;10.73;;
39486;SDS011;25173;50.430;18.926;2023-08-31T00:25:15;12.13;;;10.82;;
39486;SDS011;25173;50.430;18.926;2023-08-31T00:28:16;12.95;;;10.63;;
39486;SDS011;25173;50.430;18.926;2023-08-31T00:31:18;12.00;;;10.77;;
39486;SDS011;25173;50.430;18.926;2023-08-31T00:34:19;15.52;;;11.27;;
39486;SDS011;25173;50.430;18.926;2023-08-31T00:37:20;13.50;;;11.05;;
39486;SDS011;25173;50.430;18.926;2023-08-31T00:40:21;11.77;;;10.57;;
39486;SDS011;25173;50.430;18.926;2023-08-31T00:43:22;10.98;;;9.95;;
39486;SDS011;25173;50.430;18.926;2023-08-31T00:46:23;10.90;;;9.77;;
39486;SDS011;25173;50.430;18.926;2023-08-31T00:49:23;11.73;;;9.07;;
39486;SDS011;25173;50.430;18.926;2023-08-31T00:52:24;19.73;;;9.82;;
39486;SDS011;25173;50.430;18.926;2023-08-31T00:55:25;11.55;;;9.15;;
39486;SDS011;25173;50.430;18.926;2023-08-31T00:58:26;10.52;;;7.57;;
39486;SDS011;25173;50.430;18.926;2023-08-31T01:01:37;9.27;;;8.35;;
39486;SDS011;25173;50.430;18.926;2023-08-31T01:05:00;8.85;;;8.00;;
39486;SDS011;25173;50.430;18.926;2023-08-31T01:11:34;9.75;;;7.68;;
39486;SDS011;25173;50.430;18.926;2023-08-31T01:18:00;9.25;;;7.22;;
39486;SDS011;25173;50.430;18.926;2023-08-31T01:24:16;13.43;;;7.20;;
39486;SDS011;25173;50.430;18.926;2023-08-31T01:27:17;7.32;;;6.50;;
39486;SDS011;25173;50.430;18.926;2023-08-31T01:30:19;9.52;;;6.47;;
39486;SDS011;25173;50.430;18.926;2023-08-31T01:33:20;7.35;;;6.65;;
39486;SDS011;25173;50.430;18.926;2023-08-31T01:36:23;9.32;;;6.88;;
39486;SDS011;25173;50.430;18.926;2023-08-31T01:39:35;8.68;;;7.25;;
39486;SDS011;25173;50.430;18.926;2023-08-31T01:42:42;9.13;;;6.25;;
39486;SDS011;25173;50.430;18.926;2023-08-31T01:45:43;7.13;;;6.43;;
39486;SDS011;25173;50.430;18.926;2023-08-31T01:48:46;7.40;;;6.25;;
39486;SDS011;25173;50.430;18.926;2023-08-31T01:51:47;6.95;;;6.25;;
39486;SDS011;25173;50.430;18.926;2023-08-31T01:54:47;7.00;;;5.88;;
39486;SDS011;25173;50.430;18.926;2023-08-31T01:57:48;7.80;;;6.50;;
39486;SDS011;25173;50.430;18.926;2023-08-31T02:00:59;15.98;;;6.57;;
39486;SDS011;25173;50.430;18.926;2023-08-31T02:04:00;9.18;;;6.18;;
39486;SDS011;25173;50.430;18.926;2023-08-31T02:07:01;6.95;;;6.00;;
39486;SDS011;25173;50.430;18.926;2023-08-31T02:10:03;7.53;;;6.72;;
39486;SDS011;25173;50.430;18.926;2023-08-31T02:13:06;6.95;;;6.05;;
39486;SDS011;25173;50.430;18.926;2023-08-31T02:16:07;6.63;;;6.03;;
39486;SDS011;25173;50.430;18.926;2023-08-31T02:19:07;8.50;;;6.03;;
39486;SDS011;25173;50.430;18.926;2023-08-31T02:22:08;7.15;;;6.45;;
39486;SDS011;25173;50.430;18.926;2023-08-31T02:25:09;6.38;;;5.78;;
39486;SDS011;25173;50.430;18.926;2023-08-31T02:28:09;9.23;;;6.68;;
39486;SDS011;25173;50.430;18.926;2023-08-31T02:31:13;9.57;;;6.63;;
39486;SDS011;25173;50.430;18.926;2023-08-31T02:34:14;11.75;;;6.50;;
39486;SDS011;25173;50.430;18.926;2023-08-31T02:37:15;7.78;;;6.03;;
39486;SDS011;25173;50.430;18.926;2023-08-31T02:40:16;8.65;;;5.97;;
39486;SDS011;25173;50.430;18.926;2023-08-31T02:43:17;8.50;;;6.35;;
39486;SDS011;25173;50.430;18.926;2023-08-31T02:46:17;9.85;;;6.95;;
39486;SDS011;25173;50.430;18.926;2023-08-31T02:49:18;8.50;;;6.85;;
39486;SDS011;25173;50.430;18.926;2023-08-31T02:52:19;6.55;;;5.88;;
39486;SDS011;25173;50.430;18.926;2023-08-31T02:55:19;6.93;;;5.55;;
39486;SDS011;25173;50.430;18.926;2023-08-31T02:58:21;7.30;;;5.03;;
39486;SDS011;25173;50.430;18.926;2023-08-31T03:01:22;7.53;;;5.50;;
39486;SDS011;25173;50.430;18.926;2023-08-31T03:04:25;8.82;;;6.55;;
39486;SDS011;25173;50.430;18.926;2023-08-31T03:07:27;7.90;;;6.13;;
39486;SDS011;25173;50.430;18.926;2023-08-31T03:10:27;11.50;;;6.63;;
39486;SDS011;25173;50.430;18.926;2023-08-31T03:13:28;8.93;;;5.82;;
39486;SDS011;25173;50.430;18.926;2023-08-31T03:16:29;8.38;;;6.85;;
39486;SDS011;25173;50.430;18.926;2023-08-31T03:19:30;9.00;;;6.40;;
39486;SDS011;25173;50.430;18.926;2023-08-31T03:22:31;6.95;;;6.03;;
39486;SDS011;25173;50.430;18.926;2023-08-31T03:25:31;9.38;;;6.80;;
39486;SDS011;25173;50.430;18.926;2023-08-31T03:28:32;10.23;;;6.90;;
39486;SDS011;25173;50.430;18.926;2023-08-31T03:31:34;7.95;;;5.85;;
39486;SDS011;25173;50.430;18.926;2023-08-31T03:34:35;6.43;;;5.75;;
39486;SDS011;25173;50.430;18.926;2023-08-31T03:37:36;7.40;;;5.70;;
39486;SDS011;25173;50.430;18.926;2023-08-31T03:40:37;9.52;;;6.22;;
39486;SDS011;25173;50.430;18.926;2023-08-31T03:43:37;8.38;;;7.10;;
39486;SDS011;25173;50.430;18.926;2023-08-31T03:46:38;10.30;;;7.10;;
39486;SDS011;25173;50.430;18.926;2023-08-31T03:49:38;12.45;;;7.55;;
39486;SDS011;25173;50.430;18.926;2023-08-31T03:52:41;11.80;;;7.95;;
39486;SDS011;25173;50.430;18.926;2023-08-31T03:55:43;10.27;;;7.70;;
39486;SDS011;25173;50.430;18.926;2023-08-31T03:58:43;10.60;;;7.80;;
39486;SDS011;25173;50.430;18.926;2023-08-31T04:01:44;13.10;;;7.65;;
39486;SDS011;25173;50.430;18.926;2023-08-31T04:04:46;14.02;;;10.07;;
39486;SDS011;25173;50.430;18.926;2023-08-31T04:07:48;10.13;;;7.75;;
39486;SDS011;25173;50.430;18.926;2023-08-31T04:10:48;8.55;;;7.32;;
39486;SDS011;25173;50.430;18.926;2023-08-31T04:13:49;12.68;;;8.07;;
39486;SDS011;25173;50.430;18.926;2023-08-31T04:16:49;16.20;;;7.70;;
39486;SDS011;25173;50.430;18.926;2023-08-31T04:19:50;11.27;;;7.60;;
39486;SDS011;25173;50.430;18.926;2023-08-31T04:22:51;11.23;;;7.85;;
39486;SDS011;25173;50.430;18.926;2023-08-31T04:25:51;8.00;;;6.95;;
39486;SDS011;25173;50.430;18.926;2023-08-31T04:28:53;9.00;;;7.40;;
39486;SDS011;25173;50.430;18.926;2023-08-31T04:31:54;9.07;;;6.85;;
39486;SDS011;25173;50.430;18.926;2023-08-31T04:34:55;9.70;;;6.35;;
39486;SDS011;25173;50.430;18.926;2023-08-31T04:37:55;9.82;;;6.25;;
39486;SDS011;25173;50.430;18.926;2023-08-31T04:40:59;6.82;;;5.95;;
39486;SDS011;25173;50.430;18.926;2023-08-31T04:44:00;6.78;;;6.07;;
39486;SDS011;25173;50.430;18.926;2023-08-31T04:47:01;9.57;;;6.30;;
39486;SDS011;25173;50.430;18.926;2023-08-31T04:50:01;9.07;;;6.22;;
39486;SDS011;25173;50.430;18.926;2023-08-31T04:53:03;7.25;;;6.18;;
39486;SDS011;25173;50.430;18.926;2023-08-31T04:56:04;7.15;;;5.82;;
39486;SDS011;25173;50.430;18.926;2023-08-31T04:59:05;6.30;;;5.38;;
39486;SDS011;25173;50.430;18.926;2023-08-31T05:02:06;7.35;;;5.13;;
39486;SDS011;25173;50.430;18.926;2023-08-31T05:05:06;6.70;;;5.68;;
39486;SDS011;25173;50.430;18.926;2023-08-31T05:08:07;4.85;;;4.35;;
39486;SDS011;25173;50.430;18.926;2023-08-31T05:11:08;5.03;;;4.32;;
39486;SDS011;25173;50.430;18.926;2023-08-31T05:14:09;6.40;;;4.55;;
39486;SDS011;25173;50.430;18.926;2023-08-31T05:17:09;4.68;;;4.00;;
39486;SDS011;25173;50.430;18.926;2023-08-31T05:20:10;7.40;;;4.10;;
39486;SDS011;25173;50.430;18.926;2023-08-31T05:23:11;6.53;;;4.32;;
39486;SDS011;25173;50.430;18.926;2023-08-31T05:26:11;5.18;;;3.85;;
39486;SDS011;25173;50.430;18.926;2023-08-31T05:29:12;5.07;;;3.83;;
39486;SDS011;25173;50.430;18.926;2023-08-31T05:32:12;4.88;;;4.47;;
39486;SDS011;25173;50.430;18.926;2023-08-31T05:35:13;10.38;;;4.78;;
39486;SDS011;25173;50.430;18.926;2023-08-31T05:38:13;8.02;;;4.32;;
39486;SDS011;25173;50.430;18.926;2023-08-31T05:41:14;9.35;;;4.03;;
39486;SDS011;25173;50.430;18.926;2023-08-31T05:44:15;6.70;;;3.90;;
39486;SDS011;25173;50.430;18.926;2023-08-31T05:47:16;5.60;;;3.65;;
39486;SDS011;25173;50.430;18.926;2023-08-31T05:50:17;5.15;;;3.45;;
39486;SDS011;25173;50.430;18.926;2023-08-31T05:53:18;4.70;;;4.30;;
39486;SDS011;25173;50.430;18.926;2023-08-31T05:56:21;5.20;;;4.40;;
39486;SDS011;25173;50.430;18.926;2023-08-31T05:59:21;7.47;;;4.43;;
39486;SDS011;25173;50.430;18.926;2023-08-31T06:02:22;6.30;;;4.15;;
39486;SDS011;25173;50.430;18.926;2023-08-31T06:05:23;5.10;;;4.13;;
39486;SDS011;25173;50.430;18.926;2023-08-31T06:08:23;5.90;;;4.55;;
39486;SDS011;25173;50.430;18.926;2023-08-31T06:11:24;6.32;;;5.38;;
39486;SDS011;25173;50.430;18.926;2023-08-31T06:14:24;5.88;;;4.85;;
39486;SDS011;25173;50.430;18.926;2023-08-31T06:17:25;5.32;;;4.78;;
39486;SDS011;25173;50.430;18.926;2023-08-31T06:20:26;12.80;;;6.03;;
39486;SDS011;25173;50.430;18.926;2023-08-31T06:23:27;7.45;;;5.45;;
39486;SDS011;25173;50.430;18.926;2023-08-31T06:26:27;5.20;;;4.70;;
39486;SDS011;25173;50.430;18.926;2023-08-31T06:29:28;5.68;;;5.00;;
39486;SDS011;25173;50.430;18.926;2023-08-31T06:32:28;6.25;;;5.28;;
39486;SDS011;25173;50.430;18.926;2023-08-31T06:35:29;7.60;;;4.72;;
39486;SDS011;25173;50.430;18.926;2023-08-31T06:38:30;5.90;;;5.05;;
39486;SDS011;25173;50.430;18.926;2023-08-31T06:41:30;13.15;;;6.53;;
39486;SDS011;25173;50.430;18.926;2023-08-31T06:44:31;8.77;;;6.05;;
39486;SDS011;25173;50.430;18.926;2023-08-31T06:47:32;8.85;;;7.72;;
39486;SDS011;25173;50.430;18.926;2023-08-31T06:50:33;10.00;;;7.70;;
39486;SDS011;25173;50.430;18.926;2023-08-31T06:53:35;9.15;;;7.55;;
39486;SDS011;25173;50.430;18.926;2023-08-31T06:56:37;12.18;;;6.80;;
39486;SDS011;25173;50.430;18.926;2023-08-31T06:59:38;13.60;;;6.63;;
39486;SDS011;25173;50.430;18.926;2023-08-31T07:02:41;7.03;;;5.55;;
39486;SDS011;25173;50.430;18.926;2023-08-31T07:05:42;6.20;;;4.78;;
39486;SDS011;25173;50.430;18.926;2023-08-31T07:08:43;9.32;;;4.75;;
39486;SDS011;25173;50.430;18.926;2023-08-31T07:11:45;7.95;;;4.97;;
39486;SDS011;25173;50.430;18.926;2023-08-31T07:14:46;5.97;;;5.13;;
39486;SDS011;25173;50.430;18.926;2023-08-31T07:17:46;9.55;;;5.45;;
39486;SDS011;25173;50.430;18.926;2023-08-31T07:20:47;6.45;;;5.07;;
39486;SDS011;25173;50.430;18.926;2023-08-31T07:23:47;10.23;;;5.93;;
39486;SDS011;25173;50.430;18.926;2023-08-31T07:26:48;9.20;;;5.40;;
39486;SDS011;25173;50.430;18.926;2023-08-31T07:29:49;9.68;;;5.63;;
39486;SDS011;25173;50.430;18.926;2023-08-31T07:32:49;9.77;;;5.20;;
39486;SDS011;25173;50.430;18.926;2023-08-31T07:35:50;10.55;;;4.65;;
39486;SDS011;25173;50.430;18.926;2023-08-31T07:38:50;5.38;;;4.15;;
39486;SDS011;25173;50.430;18.926;2023-08-31T07:41:52;7.20;;;3.47;;
39486;SDS011;25173;50.430;18.926;2023-08-31T07:44:54;5.13;;;3.83;;
39486;SDS011;25173;50.430;18.926;2023-08-31T07:47:55;8.38;;;3.53;;
39486;SDS011;25173;50.430;18.926;2023-08-31T07:50:55;5.85;;;4.32;;
39486;SDS011;25173;50.430;18.926;2023-08-31T07:53:56;7.35;;;4.60;;
39486;SDS011;25173;50.430;18.926;2023-08-31T07:56:57;5.22;;;3.65;;
39486;SDS011;25173;50.430;18.926;2023-08-31T07:59:57;5.82;;;3.85;;
39486;SDS011;25173;50.430;18.926;2023-08-31T08:02:58;6.78;;;3.70;;
39486;SDS011;25173;50.430;18.926;2023-08-31T08:05:59;5.35;;;3.42;;
39486;SDS011;25173;50.430;18.926;2023-08-31T08:08:59;4.55;;;3.70;;
39486;SDS011;25173;50.430;18.926;2023-08-31T08:12:00;10.85;;;4.05;;
39486;SDS011;25173;50.430;18.926;2023-08-31T08:15:01;5.20;;;2.90;;
39486;SDS011;25173;50.430;18.926;2023-08-31T08:18:01;8.55;;;3.92;;
39486;SDS011;25173;50.430;18.926;2023-08-31T08:21:02;5.93;;;3.92;;
39486;SDS011;25173;50.430;18.926;2023-08-31T08:24:03;5.18;;;3.78;;
39486;SDS011;25173;50.430;18.926;2023-08-31T08:27:04;6.60;;;4.75;;
39486;SDS011;25173;50.430;18.926;2023-08-31T08:30:05;5.18;;;3.47;;
39486;SDS011;25173;50.430;18.926;2023-08-31T08:33:08;7.28;;;3.47;;
39486;SDS011;25173;50.430;18.926;2023-08-31T08:36:09;6.13;;;3.35;;
39486;SDS011;25173;50.430;18.926;2023-08-31T08:39:09;6.03;;;3.33;;
39486;SDS011;25173;50.430;18.926;2023-08-31T08:42:10;4.43;;;2.92;;
39486;SDS011;25173;50.430;18.926;2023-08-31T08:45:12;6.20;;;3.30;;
39486;SDS011;25173;50.430;18.926;2023-08-31T08:51:18;3.63;;;2.45;;
39486;SDS011;25173;50.430;18.926;2023-08-31T08:54:19;5.60;;;2.58;;
39486;SDS011;25173;50.430;18.926;2023-08-31T08:57:22;3.55;;;2.60;;
39486;SDS011;25173;50.430;18.926;2023-08-31T09:00:22;7.20;;;2.90;;
39486;SDS011;25173;50.430;18.926;2023-08-31T09:03:23;3.80;;;2.00;;
39486;SDS011;25173;50.430;18.926;2023-08-31T09:06:27;5.60;;;2.10;;
39486;SDS011;25173;50.430;18.926;2023-08-31T09:09:28;8.52;;;3.75;;
39486;SDS011;25173;50.430;18.926;2023-08-31T09:12:29;5.38;;;2.70;;
39486;SDS011;25173;50.430;18.926;2023-08-31T09:15:48;5.18;;;3.03;;
39486;SDS011;25173;50.430;18.926;2023-08-31T09:18:49;5.68;;;3.00;;
39486;SDS011;25173;50.430;18.926;2023-08-31T09:21:50;5.13;;;2.42;;
39486;SDS011;25173;50.430;18.926;2023-08-31T09:24:51;5.25;;;1.98;;
39486;SDS011;25173;50.430;18.926;2023-08-31T09:27:52;3.97;;;2.20;;
39486;SDS011;25173;50.430;18.926;2023-08-31T09:30:52;5.72;;;2.80;;
39486;SDS011;25173;50.430;18.926;2023-08-31T09:34:02;3.88;;;2.20;;
39486;SDS011;25173;50.430;18.926;2023-08-31T09:37:04;2.50;;;2.10;;
39486;SDS011;25173;50.430;18.926;2023-08-31T09:40:09;3.95;;;2.60;;
39486;SDS011;25173;50.430;18.926;2023-08-31T09:43:10;8.30;;;2.72;;
39486;SDS011;25173;50.430;18.926;2023-08-31T09:46:11;5.70;;;2.40;;
39486;SDS011;25173;50.430;18.926;2023-08-31T09:49:14;3.08;;;2.20;;
39486;SDS011;25173;50.430;18.926;2023-08-31T09:52:17;4.95;;;2.25;;
39486;SDS011;25173;50.430;18.926;2023-08-31T09:55:19;3.53;;;2.33;;
39486;SDS011;25173;50.430;18.926;2023-08-31T09:58:21;8.65;;;2.63;;
39486;SDS011;25173;50.430;18.926;2023-08-31T10:01:25;5.55;;;2.53;;
39486;SDS011;25173;50.430;18.926;2023-08-31T10:04:26;3.83;;;2.30;;
39486;SDS011;25173;50.430;18.926;2023-08-31T10:07:30;8.07;;;2.57;;
39486;SDS011;25173;50.430;18.926;2023-08-31T10:10:31;6.22;;;2.38;;
39486;SDS011;25173;50.430;18.926;2023-08-31T10:13:33;3.97;;;2.67;;
39486;SDS011;25173;50.430;18.926;2023-08-31T10:16:38;4.47;;;2.70;;
39486;SDS011;25173;50.430;18.926;2023-08-31T10:19:39;5.60;;;2.03;;
39486;SDS011;25173;50.430;18.926;2023-08-31T10:22:40;4.18;;;2.53;;
39486;SDS011;25173;50.430;18.926;2023-08-31T10:28:51;2.97;;;2.30;;
39486;SDS011;25173;50.430;18.926;2023-08-31T10:31:52;4.00;;;2.03;;
39486;SDS011;25173;50.430;18.926;2023-08-31T10:35:25;3.35;;;2.53;;
39486;SDS011;25173;50.430;18.926;2023-08-31T10:38:29;4.85;;;2.30;;
39486;SDS011;25173;50.430;18.926;2023-08-31T10:41:34;3.13;;;2.03;;
39486;SDS011;25173;50.430;18.926;2023-08-31T10:44:35;3.42;;;2.28;;
39486;SDS011;25173;50.430;18.926;2023-08-31T10:47:40;2.83;;;2.42;;
39486;SDS011;25173;50.430;18.926;2023-08-31T10:53:43;4.43;;;1.92;;
39486;SDS011;25173;50.430;18.926;2023-08-31T10:57:01;2.08;;;1.85;;
39486;SDS011;25173;50.430;18.926;2023-08-31T11:00:08;3.75;;;2.45;;
39486;SDS011;25173;50.430;18.926;2023-08-31T11:03:12;7.20;;;3.75;;
39486;SDS011;25173;50.430;18.926;2023-08-31T11:06:13;5.28;;;3.17;;
39486;SDS011;25173;50.430;18.926;2023-08-31T11:09:18;2.65;;;2.22;;
39486;SDS011;25173;50.430;18.926;2023-08-31T11:12:21;2.75;;;2.17;;
39486;SDS011;25173;50.430;18.926;2023-08-31T11:15:24;3.97;;;2.80;;
39486;SDS011;25173;50.430;18.926;2023-08-31T11:18:26;6.57;;;3.35;;
39486;SDS011;25173;50.430;18.926;2023-08-31T11:21:26;3.88;;;2.60;;
39486;SDS011;25173;50.430;18.926;2023-08-31T11:24:27;6.07;;;2.90;;
39486;SDS011;25173;50.430;18.926;2023-08-31T11:27:32;5.50;;;2.70;;
39486;SDS011;25173;50.430;18.926;2023-08-31T11:30:33;7.13;;;4.05;;
39486;SDS011;25173;50.430;18.926;2023-08-31T11:33:35;5.30;;;2.92;;
39486;SDS011;25173;50.430;18.926;2023-08-31T11:36:37;5.38;;;2.97;;
39486;SDS011;25173;50.430;18.926;2023-08-31T11:39:39;6.00;;;3.03;;
39486;SDS011;25173;50.430;18.926;2023-08-31T11:42:40;5.35;;;2.17;;
39486;SDS011;25173;50.430;18.926;2023-08-31T11:45:41;4.65;;;3.28;;
39486;SDS011;25173;50.430;18.926;2023-08-31T11:48:43;6.80;;;3.78;;
39486;SDS011;25173;50.430;18.926;2023-08-31T11:51:44;6.65;;;2.72;;
39486;SDS011;25173;50.430;18.926;2023-08-31T11:54:45;6.18;;;3.50;;
39486;SDS011;25173;50.430;18.926;2023-08-31T11:57:49;2.40;;;2.10;;
39486;SDS011;25173;50.430;18.926;2023-08-31T12:00:54;23.27;;;2.80;;
39486;SDS011;25173;50.430;18.926;2023-08-31T12:03:55;9.68;;;2.55;;
39486;SDS011;25173;50.430;18.926;2023-08-31T12:07:00;6.38;;;2.60;;
39486;SDS011;25173;50.430;18.926;2023-08-31T12:10:04;10.48;;;3.00;;
39486;SDS011;25173;50.430;18.926;2023-08-31T12:13:09;4.45;;;3.13;;
39486;SDS011;25173;50.430;18.926;2023-08-31T12:16:13;8.30;;;3.03;;
39486;SDS011;25173;50.430;18.926;2023-08-31T12:19:14;13.00;;;3.70;;
39486;SDS011;25173;50.430;18.926;2023-08-31T12:22:14;6.47;;;3.20;;
39486;SDS011;25173;50.430;18.926;2023-08-31T12:25:21;22.65;;;5.18;;
39486;SDS011;25173;50.430;18.926;2023-08-31T12:28:22;13.07;;;5.72;;
39486;SDS011;25173;50.430;18.926;2023-08-31T12:31:26;9.07;;;4.88;;
39486;SDS011;25173;50.430;18.926;2023-08-31T12:34:27;10.63;;;4.30;;
39486;SDS011;25173;50.430;18.926;2023-08-31T12:37:28;5.38;;;4.30;;
39486;SDS011;25173;50.430;18.926;2023-08-31T12:40:29;7.72;;;4.00;;
39486;SDS011;25173;50.430;18.926;2023-08-31T12:43:33;5.35;;;3.65;;
39486;SDS011;25173;50.430;18.926;2023-08-31T12:46:34;4.38;;;3.83;;
39486;SDS011;25173;50.430;18.926;2023-08-31T12:49:35;4.80;;;3.22;;
39486;SDS011;25173;50.430;18.926;2023-08-31T12:52:36;4.47;;;3.33;;
39486;SDS011;25173;50.430;18.926;2023-08-31T12:55:44;3.08;;;2.78;;
39486;SDS011;25173;50.430;18.926;2023-08-31T12:58:50;3.15;;;2.20;;
39486;SDS011;25173;50.430;18.926;2023-08-31T13:01:52;3.00;;;2.27;;
39486;SDS011;25173;50.430;18.926;2023-08-31T13:04:53;5.18;;;3.13;;
39486;SDS011;25173;50.430;18.926;2023-08-31T13:07:54;2.50;;;2.30;;
39486;SDS011;25173;50.430;18.926;2023-08-31T13:10:58;4.97;;;3.10;;
39486;SDS011;25173;50.430;18.926;2023-08-31T13:13:59;5.13;;;2.55;;
39486;SDS011;25173;50.430;18.926;2023-08-31T13:17:00;3.85;;;2.90;;
39486;SDS011;25173;50.430;18.926;2023-08-31T13:20:00;6.18;;;2.58;;
39486;SDS011;25173;50.430;18.926;2023-08-31T13:23:01;3.45;;;2.30;;
39486;SDS011;25173;50.430;18.926;2023-08-31T13:26:03;3.63;;;2.80;;
39486;SDS011;25173;50.430;18.926;2023-08-31T13:29:04;2.65;;;2.15;;
39486;SDS011;25173;50.430;18.926;2023-08-31T13:32:05;5.22;;;2.38;;
39486;SDS011;25173;50.430;18.926;2023-08-31T13:35:06;2.97;;;2.53;;
39486;SDS011;25173;50.430;18.926;2023-08-31T13:38:07;3.92;;;2.97;;
39486;SDS011;25173;50.430;18.926;2023-08-31T13:41:08;3.90;;;2.30;;
39486;SDS011;25173;50.430;18.926;2023-08-31T13:44:09;4.43;;;3.25;;
39486;SDS011;25173;50.430;18.926;2023-08-31T13:47:12;3.53;;;2.80;;
39486;SDS011;25173;50.430;18.926;2023-08-31T13:50:13;3.92;;;2.70;;
39486;SDS011;25173;50.430;18.926;2023-08-31T13:53:14;9.45;;;2.45;;
39486;SDS011;25173;50.430;18.926;2023-08-31T13:56:15;4.55;;;2.67;;
39486;SDS011;25173;50.430;18.926;2023-08-31T13:59:15;3.90;;;2.70;;
39486;SDS011;25173;50.430;18.926;2023-08-31T14:02:16;5.90;;;3.25;;
39486;SDS011;25173;50.430;18.926;2023-08-31T14:05:17;3.30;;;3.00;;
39486;SDS011;25173;50.430;18.926;2023-08-31T14:08:17;5.88;;;3.00;;
39486;SDS011;25173;50.430;18.926;2023-08-31T14:11:18;4.40;;;2.85;;
39486;SDS011;25173;50.430;18.926;2023-08-31T14:14:18;2.90;;;2.63;;
39486;SDS011;25173;50.430;18.926;2023-08-31T14:17:19;4.05;;;2.28;;
39486;SDS011;25173;50.430;18.926;2023-08-31T14:20:20;5.65;;;2.33;;
39486;SDS011;25173;50.430;18.926;2023-08-31T14:23:22;4.03;;;2.55;;
39486;SDS011;25173;50.430;18.926;2023-08-31T14:26:23;3.85;;;2.70;;
39486;SDS011;25173;50.430;18.926;2023-08-31T14:29:24;4.10;;;2.40;;
39486;SDS011;25173;50.430;18.926;2023-08-31T14:32:24;2.67;;;1.70;;
39486;SDS011;25173;50.430;18.926;2023-08-31T14:35:25;2.30;;;2.05;;
39486;SDS011;25173;50.430;18.926;2023-08-31T14:38:26;4.03;;;2.45;;
39486;SDS011;25173;50.430;18.926;2023-08-31T14:41:29;2.92;;;2.25;;
39486;SDS011;25173;50.430;18.926;2023-08-31T14:44:30;3.08;;;1.90;;
39486;SDS011;25173;50.430;18.926;2023-08-31T14:47:31;2.65;;;1.92;;
39486;SDS011;25173;50.430;18.926;2023-08-31T14:50:31;4.57;;;1.55;;
39486;SDS011;25173;50.430;18.926;2023-08-31T14:53:32;1.75;;;1.60;;
39486;SDS011;25173;50.430;18.926;2023-08-31T14:56:32;2.58;;;2.15;;
39486;SDS011;25173;50.430;18.926;2023-08-31T14:59:33;2.67;;;1.55;;
39486;SDS011;25173;50.430;18.926;2023-08-31T15:02:34;1.60;;;1.42;;
39486;SDS011;25173;50.430;18.926;2023-08-31T15:05:34;3.10;;;1.90;;
39486;SDS011;25173;50.430;18.926;2023-08-31T15:08:36;2.00;;;1.75;;
39486;SDS011;25173;50.430;18.926;2023-08-31T15:11:39;2.17;;;1.85;;
39486;SDS011;25173;50.430;18.926;2023-08-31T15:14:39;2.17;;;1.90;;
39486;SDS011;25173;50.430;18.926;2023-08-31T15:17:40;2.45;;;1.88;;
39486;SDS011;25173;50.430;18.926;2023-08-31T15:20:40;3.03;;;1.92;;
39486;SDS011;25173;50.430;18.926;2023-08-31T15:23:43;4.50;;;2.05;;
39486;SDS011;25173;50.430;18.926;2023-08-31T15:26:44;3.08;;;1.60;;
39486;SDS011;25173;50.430;18.926;2023-08-31T15:29:45;1.73;;;1.60;;
39486;SDS011;25173;50.430;18.926;2023-08-31T15:32:45;2.50;;;2.13;;
39486;SDS011;25173;50.430;18.926;2023-08-31T15:35:46;4.57;;;2.00;;
39486;SDS011;25173;50.430;18.926;2023-08-31T15:38:47;2.75;;;2.00;;
39486;SDS011;25173;50.430;18.926;2023-08-31T15:41:48;5.82;;;2.65;;
39486;SDS011;25173;50.430;18.926;2023-08-31T15:44:49;3.03;;;1.80;;
39486;SDS011;25173;50.430;18.926;2023-08-31T15:47:49;5.47;;;2.90;;
39486;SDS011;25173;50.430;18.926;2023-08-31T15:50:50;3.83;;;2.33;;
39486;SDS011;25173;50.430;18.926;2023-08-31T15:53:50;2.47;;;1.60;;
39486;SDS011;25173;50.430;18.926;2023-08-31T15:56:51;7.05;;;2.00;;
39486;SDS011;25173;50.430;18.926;2023-08-31T15:59:51;2.58;;;1.90;;
39486;SDS011;25173;50.430;18.926;2023-08-31T16:02:52;5.32;;;2.00;;
39486;SDS011;25173;50.430;18.926;2023-08-31T16:05:52;2.83;;;1.90;;
39486;SDS011;25173;50.430;18.926;2023-08-31T16:08:53;2.72;;;1.88;;
39486;SDS011;25173;50.430;18.926;2023-08-31T16:11:54;4.00;;;2.05;;
39486;SDS011;25173;50.430;18.926;2023-08-31T16:14:55;7.72;;;1.98;;
39486;SDS011;25173;50.430;18.926;2023-08-31T16:17:56;2.95;;;1.90;;
39486;SDS011;25173;50.430;18.926;2023-08-31T16:21:00;3.42;;;1.60;;
39486;SDS011;25173;50.430;18.926;2023-08-31T16:24:00;4.03;;;2.20;;
39486;SDS011;25173;50.430;18.926;2023-08-31T16:27:01;12.43;;;2.13;;
39486;SDS011;25173;50.430;18.926;2023-08-31T16:30:01;4.45;;;1.77;;
39486;SDS011;25173;50.430;18.926;2023-08-31T16:33:02;2.17;;;1.60;;
39486;SDS011;25173;50.430;18.926;2023-08-31T16:36:03;5.15;;;1.80;;
39486;SDS011;25173;50.430;18.926;2023-08-31T16:39:04;3.72;;;1.90;;
39486;SDS011;25173;50.430;18.926;2023-08-31T16:42:05;3.05;;;1.55;;
39486;SDS011;25173;50.430;18.926;2023-08-31T16:45:06;4.10;;;2.20;;
39486;SDS011;25173;50.430;18.926;2023-08-31T16:48:07;4.57;;;1.75;;
39486;SDS011;25173;50.430;18.926;2023-08-31T16:51:08;3.28;;;1.80;;
39486;SDS011;25173;50.430;18.926;2023-08-31T16:54:08;4.68;;;2.10;;
39486;SDS011;25173;50.430;18.926;2023-08-31T16:57:09;4.60;;;1.90;;
39486;SDS011;25173;50.430;18.926;2023-08-31T17:00:10;2.15;;;1.58;;
39486;SDS011;25173;50.430;18.926;2023-08-31T17:03:11;2.15;;;1.65;;
39486;SDS011;25173;50.430;18.926;2023-08-31T17:06:11;4.03;;;2.05;;
39486;SDS011;25173;50.430;18.926;2023-08-31T17:09:12;4.53;;;1.90;;
39486;SDS011;25173;50.430;18.926;2023-08-31T17:12:12;3.90;;;2.20;;
39486;SDS011;25173;50.430;18.926;2023-08-31T17:15:15;8.27;;;2.65;;
39486;SDS011;25173;50.430;18.926;2023-08-31T17:18:15;9.35;;;3.83;;
39486;SDS011;25173;50.430;18.926;2023-08-31T17:21:16;9.15;;;3.60;;
39486;SDS011;25173;50.430;18.926;2023-08-31T17:24:16;10.88;;;4.43;;
39486;SDS011;25173;50.430;18.926;2023-08-31T17:27:18;14.80;;;7.35;;
39486;SDS011;25173;50.430;18.926;2023-08-31T17:30:19;19.85;;;13.25;;
39486;SDS011;25173;50.430;18.926;2023-08-31T17:33:20;12.35;;;6.82;;
39486;SDS011;25173;50.430;18.926;2023-08-31T17:36:22;10.27;;;4.95;;
39486;SDS011;25173;50.430;18.926;2023-08-31T17:39:22;8.52;;;4.35;;
39486;SDS011;25173;50.430;18.926;2023-08-31T17:42:23;6.75;;;4.25;;
39486;SDS011;25173;50.430;18.926;2023-08-31T17:45:25;15.68;;;7.72;;
39486;SDS011;25173;50.430;18.926;2023-08-31T17:48:26;17.90;;;10.30;;
39486;SDS011;25173;50.430;18.926;2023-08-31T17:51:27;17.13;;;8.27;;
39486;SDS011;25173;50.430;18.926;2023-08-31T17:54:28;11.27;;;6.22;;
39486;SDS011;25173;50.430;18.926;2023-08-31T17:57:28;22.55;;;8.70;;
39486;SDS011;25173;50.430;18.926;2023-08-31T18:00:29;19.45;;;10.43;;
39486;SDS011;25173;50.430;18.926;2023-08-31T18:03:30;16.52;;;8.10;;
39486;SDS011;25173;50.430;18.926;2023-08-31T18:06:30;18.27;;;9.95;;
39486;SDS011;25173;50.430;18.926;2023-08-31T18:09:31;23.45;;;10.82;;
39486;SDS011;25173;50.430;18.926;2023-08-31T18:12:37;21.00;;;12.48;;